createdAt,value
2023-03-14T00:00:52.570Z,10.07
2023-03-14T00:03:19.579Z,10.06
2023-03-14T00:05:46.369Z,10.05
2023-03-14T00:08:13.276Z,10.10
2023-03-14T00:10:44.851Z,10.12
2023-03-14T00:13:11.869Z,10.16
2023-03-14T00:15:38.591Z,10.16
2023-03-14T00:18:05.493Z,10.16
2023-03-14T00:20:32.126Z,10.16
2023-03-14T00:22:58.931Z,10.14
2023-03-14T00:25:25.641Z,10.11
2023-03-14T00:27:53.268Z,10.14
2023-03-14T00:30:20.494Z,10.14
2023-03-14T00:32:47.397Z,10.13
2023-03-14T00:35:14.152Z,10.11
2023-03-14T00:37:40.954Z,10.12
2023-03-14T00:40:09.779Z,10.10
2023-03-14T00:42:38.140Z,10.11
2023-03-14T00:45:05.302Z,10.11
2023-03-14T00:47:34.269Z,10.08
2023-03-14T00:50:01.001Z,10.07
2023-03-14T00:52:27.703Z,10.06
2023-03-14T00:54:54.430Z,10.07
2023-03-14T00:57:21.303Z,10.02
2023-03-14T00:59:47.955Z,10.02
2023-03-14T01:02:14.906Z,10.00
2023-03-14T01:04:44.187Z,9.97
2023-03-14T01:07:10.940Z,9.96
2023-03-14T01:09:39.548Z,9.93
2023-03-14T01:12:06.247Z,9.88
2023-03-14T01:14:33.027Z,9.85
2023-03-14T01:17:01.983Z,9.83
2023-03-14T01:19:29.604Z,9.80
2023-03-14T01:21:56.338Z,9.80
2023-03-14T01:24:23.353Z,9.80
2023-03-14T01:26:50.127Z,9.74
2023-03-14T01:29:16.958Z,9.73
2023-03-14T01:31:43.765Z,9.70
2023-03-14T01:34:10.867Z,9.68
2023-03-14T01:36:38.055Z,9.71
2023-03-14T01:39:07.121Z,9.68
2023-03-14T01:41:33.975Z,9.66
2023-03-14T01:44:00.855Z,9.64
2023-03-14T01:46:48.076Z,9.66
2023-03-14T01:49:27.594Z,9.67
2023-03-14T01:52:06.617Z,9.65
2023-03-14T01:54:47.878Z,9.64
2023-03-14T01:57:26.050Z,9.66
2023-03-14T02:00:21.608Z,9.68
2023-03-14T02:02:52.515Z,9.64
2023-03-14T02:05:23.761Z,9.66
2023-03-14T02:08:00.911Z,9.63
2023-03-14T02:10:34.338Z,9.65
2023-03-14T02:13:04.748Z,9.62
2023-03-14T02:15:46.128Z,9.57
2023-03-14T02:18:38.454Z,9.59
2023-03-14T02:21:43.369Z,9.62
2023-03-14T02:24:17.419Z,9.70
2023-03-14T02:27:05.322Z,9.73
2023-03-14T02:29:35.032Z,9.73
2023-03-14T02:32:03.366Z,9.74
2023-03-14T02:34:32.562Z,9.81
2023-03-14T02:36:59.898Z,9.80
2023-03-14T02:39:33.183Z,9.80
2023-03-14T02:41:59.986Z,9.83
2023-03-14T02:44:26.875Z,9.82
2023-03-14T02:46:53.599Z,9.83
2023-03-14T02:49:20.579Z,9.81
2023-03-14T02:51:47.416Z,9.79
2023-03-14T02:54:15.803Z,9.76
2023-03-14T02:56:42.736Z,9.77
2023-03-14T02:59:12.796Z,9.79
2023-03-14T03:01:45.654Z,9.77
2023-03-14T03:04:12.468Z,9.76
2023-03-14T03:06:39.118Z,9.75
2023-03-14T03:09:05.868Z,9.73
2023-03-14T03:11:32.841Z,9.68
2023-03-14T03:14:00.120Z,9.69
2023-03-14T03:16:28.320Z,9.74
2023-03-14T03:18:55.031Z,9.73
2023-03-14T03:21:24.451Z,9.74
2023-03-14T03:23:52.148Z,9.72
2023-03-14T03:26:18.851Z,9.72
2023-03-14T03:28:45.638Z,9.70
2023-03-14T03:31:14.232Z,9.69
2023-03-14T03:33:41.485Z,9.67
2023-03-14T03:36:09.558Z,9.63
2023-03-14T03:38:39.191Z,9.59
2023-03-14T03:41:07.772Z,9.58
2023-03-14T03:43:35.328Z,9.57
2023-03-14T03:46:06.113Z,9.55
2023-03-14T03:48:33.340Z,9.55
2023-03-14T03:51:03.850Z,9.55
2023-03-14T03:53:33.809Z,9.57
2023-03-14T03:56:04.833Z,9.58
2023-03-14T03:58:31.574Z,9.58
2023-03-14T04:00:58.265Z,9.61
2023-03-14T04:03:25.542Z,9.62
2023-03-14T04:06:02.865Z,9.60
2023-03-14T04:08:30.638Z,9.59
2023-03-14T04:11:02.171Z,9.60
2023-03-14T04:13:51.702Z,9.59
2023-03-14T04:16:20.928Z,9.54
2023-03-14T04:18:47.873Z,9.29
2023-03-14T04:21:15.762Z,9.21
2023-03-14T04:23:48.848Z,9.09
2023-03-14T04:26:17.237Z,8.92
2023-03-14T04:28:44.865Z,8.83
2023-03-14T04:31:13.670Z,8.78
2023-03-14T04:33:40.522Z,8.74
2023-03-14T04:36:08.594Z,8.71
2023-03-14T04:38:35.746Z,8.70
2023-03-14T04:41:03.335Z,8.71
2023-03-14T04:43:33.427Z,8.65
2023-03-14T04:46:05.825Z,8.61
2023-03-14T04:48:32.881Z,8.58
2023-03-14T04:51:00.281Z,8.62
2023-03-14T04:53:32.909Z,8.61
2023-03-14T04:56:00.655Z,8.59
2023-03-14T04:58:33.914Z,8.55
2023-03-14T05:01:05.295Z,8.54
2023-03-14T05:03:48.206Z,8.54
2023-03-14T05:06:43.418Z,8.49
2023-03-14T05:09:34.153Z,8.49
2023-03-14T05:12:13.342Z,8.48
2023-03-14T05:15:06.726Z,8.48
2023-03-14T05:17:50.188Z,8.49
2023-03-14T05:20:52.410Z,8.49
2023-03-14T05:23:25.309Z,8.46
2023-03-14T05:26:08.202Z,8.46
2023-03-14T05:28:52.617Z,8.47
2023-03-14T05:31:54.868Z,8.48
2023-03-14T05:34:44.567Z,8.42
2023-03-14T05:37:32.121Z,8.42
2023-03-14T05:40:19.706Z,8.31
2023-03-14T05:42:55.552Z,8.11
2023-03-14T05:45:54.811Z,7.70
2023-03-14T05:48:30.694Z,7.48
2023-03-14T05:51:15.790Z,7.40
2023-03-14T05:54:01.057Z,7.37
2023-03-14T05:56:42.704Z,7.23
2023-03-14T05:59:21.082Z,7.16
2023-03-14T06:02:02.850Z,7.16
2023-03-14T06:04:37.972Z,7.11
2023-03-14T06:07:05.015Z,7.11
2023-03-14T06:09:32.565Z,7.13
2023-03-14T06:12:01.937Z,7.11
2023-03-14T06:14:33.491Z,7.08
2023-03-14T06:17:00.327Z,7.02
2023-03-14T06:19:30.219Z,6.95
2023-03-14T06:21:57.141Z,6.87
2023-03-14T06:24:25.872Z,6.87
2023-03-14T06:26:53.525Z,6.83
2023-03-14T06:29:20.565Z,6.70
2023-03-14T06:31:47.490Z,6.71
2023-03-14T06:34:16.486Z,6.65
2023-03-14T06:36:44.446Z,6.64
2023-03-14T06:39:11.566Z,6.63
2023-03-14T06:41:43.393Z,6.62
2023-03-14T06:44:11.425Z,6.66
2023-03-14T06:46:39.170Z,6.65
2023-03-14T06:49:06.510Z,6.70
2023-03-14T06:51:35.048Z,6.59
2023-03-14T06:54:04.990Z,6.52
2023-03-14T06:56:32.430Z,6.44
2023-03-14T06:58:59.839Z,6.59
2023-03-14T07:01:31.774Z,6.42
2023-03-14T07:04:05.988Z,6.55
2023-03-14T07:06:35.228Z,6.50
2023-03-14T07:09:03.842Z,6.48
2023-03-14T07:11:31.638Z,6.45
2023-03-14T07:13:59.049Z,6.51
2023-03-14T07:16:29.742Z,6.42
2023-03-14T07:18:56.599Z,6.30
2023-03-14T07:21:23.732Z,5.93
2023-03-14T07:23:50.776Z,5.77
2023-03-14T07:26:18.717Z,5.53
2023-03-14T07:28:50.473Z,5.60
2023-03-14T07:31:20.411Z,5.52
2023-03-14T07:33:47.814Z,5.18
2023-03-14T07:36:15.138Z,4.96
2023-03-14T07:38:45.028Z,4.95
2023-03-14T07:41:31.741Z,5.00
2023-03-14T07:44:17.756Z,4.86
2023-03-14T07:46:56.849Z,4.80
2023-03-14T07:49:24.225Z,4.86
2023-03-14T07:51:51.258Z,4.84
2023-03-14T07:54:20.146Z,4.88
2023-03-14T07:56:48.105Z,4.72
2023-03-14T07:59:15.450Z,4.87
2023-03-14T08:01:43.096Z,4.85
2023-03-14T08:04:10.692Z,4.89
2023-03-14T08:06:38.312Z,4.98
2023-03-14T08:09:06.019Z,4.90
2023-03-14T08:11:33.470Z,4.92
2023-03-14T08:14:00.949Z,5.06
2023-03-14T08:16:28.296Z,5.01
2023-03-14T08:18:55.368Z,5.08
2023-03-14T08:21:22.748Z,5.16
2023-03-14T08:23:50.264Z,5.27
2023-03-14T08:26:17.257Z,5.40
2023-03-14T08:28:44.636Z,5.46
2023-03-14T08:31:11.635Z,5.46
2023-03-14T08:33:38.938Z,5.38
2023-03-14T08:36:06.323Z,5.32
2023-03-14T08:38:33.541Z,5.31
2023-03-14T08:41:02.425Z,5.30
2023-03-14T08:43:29.810Z,5.32
2023-03-14T08:46:01.039Z,5.42
2023-03-14T08:48:28.838Z,5.54
2023-03-14T08:50:57.503Z,5.65
2023-03-14T08:53:24.948Z,5.80
2023-03-14T08:55:55.755Z,5.88
2023-03-14T08:58:25.127Z,5.82
2023-03-14T09:00:53.144Z,5.76
2023-03-14T09:03:21.136Z,5.73
2023-03-14T09:05:48.374Z,5.59
2023-03-14T09:08:15.156Z,5.64
2023-03-14T09:10:42.649Z,5.61
2023-03-14T09:13:09.803Z,5.69
2023-03-14T09:15:37.372Z,5.58
2023-03-14T09:18:04.744Z,5.60
2023-03-14T09:20:32.125Z,5.76
2023-03-14T09:22:59.566Z,5.75
2023-03-14T09:25:26.886Z,5.70
2023-03-14T09:27:54.176Z,5.55
2023-03-14T09:30:21.466Z,5.40
2023-03-14T09:32:48.931Z,5.54
2023-03-14T09:35:16.686Z,5.70
2023-03-14T09:37:44.123Z,5.85
2023-03-14T09:40:16.290Z,5.87
2023-03-14T09:42:43.515Z,6.00
2023-03-14T09:45:22.120Z,5.79
2023-03-14T09:47:59.092Z,5.95
2023-03-14T09:50:32.142Z,6.12
2023-03-14T09:53:04.664Z,6.04
2023-03-14T09:55:34.853Z,6.06
2023-03-14T09:58:05.978Z,6.33
2023-03-14T10:00:33.389Z,6.42
2023-03-14T10:03:12.915Z,6.22
2023-03-14T10:05:43.811Z,6.20
2023-03-14T10:08:14.626Z,6.14
2023-03-14T10:10:42.208Z,6.14
2023-03-14T10:13:12.446Z,6.33
2023-03-14T10:15:40.190Z,6.54
2023-03-14T10:18:16.109Z,6.50
2023-03-14T10:20:46.125Z,6.38
2023-03-14T10:23:13.385Z,6.42
2023-03-14T10:25:46.051Z,6.38
2023-03-14T10:28:26.460Z,6.28
2023-03-14T10:30:54.552Z,6.44
2023-03-14T10:33:30.055Z,6.92
2023-03-14T10:36:00.470Z,6.97
2023-03-14T10:38:30.400Z,7.24
2023-03-14T10:40:59.889Z,7.52
2023-03-14T10:43:35.211Z,8.02
2023-03-14T10:46:07.527Z,7.78
2023-03-14T10:48:38.091Z,7.94
2023-03-14T10:51:13.249Z,7.53
2023-03-14T10:53:46.077Z,7.41
2023-03-14T10:56:18.984Z,7.84
2023-03-14T10:58:48.556Z,8.33
2023-03-14T11:01:47.846Z,8.34
2023-03-14T11:04:44.967Z,7.93
2023-03-14T11:07:30.852Z,7.79
2023-03-14T11:10:10.304Z,8.35
2023-03-14T11:13:03.803Z,8.21
2023-03-14T11:15:31.323Z,8.72
2023-03-14T11:18:23.112Z,8.86
2023-03-14T11:20:54.878Z,8.82
2023-03-14T11:23:24.222Z,8.76
2023-03-14T11:26:19.576Z,8.35
2023-03-14T11:28:51.718Z,8.19
2023-03-14T11:31:22.659Z,8.54
2023-03-14T11:34:12.014Z,8.40
2023-03-14T11:36:56.223Z,8.05
2023-03-14T11:39:25.936Z,8.46
2023-03-14T11:41:54.925Z,8.22
2023-03-14T11:44:34.582Z,7.89
2023-03-14T11:47:08.474Z,7.87
2023-03-14T11:49:43.195Z,7.99
2023-03-14T11:52:29.549Z,8.20
2023-03-14T11:55:01.665Z,8.44
2023-03-14T11:57:29.320Z,8.90
2023-03-14T12:00:20.337Z,8.43
2023-03-14T12:02:52.998Z,8.42
2023-03-14T12:05:20.307Z,8.70
2023-03-14T12:08:06.284Z,8.46
2023-03-14T12:10:48.191Z,8.25
2023-03-14T12:13:17.110Z,7.88
2023-03-14T12:16:02.072Z,8.47
2023-03-14T12:18:32.303Z,8.51
2023-03-14T12:21:05.003Z,8.00
2023-03-14T12:23:38.300Z,8.15
2023-03-14T12:26:14.131Z,8.08
2023-03-14T12:29:10.316Z,8.39
2023-03-14T12:31:38.798Z,8.00
2023-03-14T12:34:12.336Z,8.70
2023-03-14T12:36:49.879Z,8.32
2023-03-14T12:39:45.332Z,8.59
2023-03-14T12:42:44.600Z,8.35
2023-03-14T12:45:35.736Z,8.32
2023-03-14T12:48:10.876Z,8.02
2023-03-14T12:50:46.700Z,8.23
2023-03-14T12:53:19.742Z,9.13
2023-03-14T12:55:52.711Z,9.11
2023-03-14T12:58:49.886Z,8.40
2023-03-14T13:01:19.929Z,8.35
2023-03-14T13:03:49.632Z,8.04
2023-03-14T13:06:46.000Z,7.97
2023-03-14T13:09:32.684Z,8.05
2023-03-14T13:12:18.705Z,8.02
2023-03-14T13:14:50.359Z,7.55
2023-03-14T13:17:34.434Z,7.87
2023-03-14T13:20:29.177Z,8.25
2023-03-14T13:22:56.814Z,8.39
2023-03-14T13:25:24.406Z,7.62
2023-03-14T13:27:56.560Z,7.78
2023-03-14T13:30:29.880Z,8.43
2023-03-14T13:32:58.128Z,9.33
2023-03-14T13:35:30.575Z,9.04
2023-03-14T13:38:10.732Z,8.70
2023-03-14T13:40:39.504Z,7.84
2023-03-14T13:43:18.599Z,7.92
2023-03-14T13:46:06.000Z,8.05
2023-03-14T13:48:36.398Z,7.73
2023-03-14T13:51:06.922Z,7.72
2023-03-14T13:53:52.788Z,7.88
2023-03-14T13:56:25.444Z,7.64
2023-03-14T13:58:53.652Z,7.32
2023-03-14T14:01:23.308Z,7.63
2023-03-14T14:03:52.700Z,7.72
2023-03-14T14:06:30.835Z,7.36
2023-03-14T14:09:00.155Z,6.88
2023-03-14T14:11:50.525Z,6.90
2023-03-14T14:14:29.792Z,6.92
2023-03-14T14:16:57.908Z,6.94
2023-03-14T14:19:29.614Z,7.20
2023-03-14T14:21:57.026Z,7.40
2023-03-14T14:24:26.391Z,7.32
2023-03-14T14:26:55.762Z,7.18
2023-03-14T14:29:33.800Z,6.78
2023-03-14T14:32:10.530Z,6.61
2023-03-14T14:34:51.463Z,6.71
2023-03-14T14:37:27.848Z,6.81
2023-03-14T14:39:59.726Z,6.77
2023-03-14T14:42:30.372Z,6.70
2023-03-14T14:44:59.270Z,6.79
2023-03-14T14:47:28.787Z,6.90
2023-03-14T14:50:00.052Z,6.65
2023-03-14T14:52:42.914Z,6.52
2023-03-14T14:55:18.626Z,6.48
2023-03-14T14:57:57.427Z,6.59
2023-03-14T15:00:27.342Z,6.60
2023-03-14T15:03:01.382Z,6.68
2023-03-14T15:05:31.561Z,6.64
2023-03-14T15:07:58.935Z,6.73
2023-03-14T15:10:27.117Z,6.81
2023-03-14T15:12:54.519Z,6.71
2023-03-14T15:15:22.034Z,6.58
2023-03-14T15:17:49.202Z,6.45
2023-03-14T15:20:18.199Z,6.44
2023-03-14T15:22:46.141Z,6.48
2023-03-14T15:25:36.942Z,6.67
2023-03-14T15:28:01.387Z,6.62
2023-03-14T15:30:28.619Z,6.53
2023-03-14T15:32:55.918Z,6.40
2023-03-14T15:35:23.141Z,6.22
2023-03-14T15:37:50.245Z,6.39
2023-03-14T15:40:17.819Z,6.21
2023-03-14T15:42:45.149Z,6.35
2023-03-14T15:45:12.968Z,6.38
2023-03-14T15:47:40.213Z,6.37
2023-03-14T15:50:11.016Z,6.30
2023-03-14T15:52:38.467Z,6.38
2023-03-14T15:55:06.007Z,6.21
2023-03-14T15:57:33.393Z,6.23
2023-03-14T16:00:00.518Z,6.19
2023-03-14T16:02:28.000Z,6.10
2023-03-14T16:04:55.209Z,6.08
2023-03-14T16:07:22.718Z,6.13
2023-03-14T16:09:50.256Z,6.12
2023-03-14T16:12:18.613Z,6.07
2023-03-14T16:14:49.089Z,6.04
2023-03-14T16:17:16.467Z,6.02
2023-03-14T16:19:43.631Z,6.05
2023-03-14T16:22:11.105Z,6.17
2023-03-14T16:24:38.381Z,6.17
2023-03-14T16:27:08.470Z,6.16
2023-03-14T16:29:36.145Z,6.12
2023-03-14T16:32:03.694Z,5.91
2023-03-14T16:34:32.222Z,5.82
2023-03-14T16:36:59.426Z,5.84
2023-03-14T16:39:29.511Z,5.82
2023-03-14T16:41:59.142Z,5.79
2023-03-14T16:44:26.495Z,5.74
2023-03-14T16:46:54.167Z,5.68
2023-03-14T16:49:21.804Z,5.66
2023-03-14T16:51:49.546Z,5.60
2023-03-14T16:54:17.198Z,5.68
2023-03-14T16:56:45.538Z,5.84
2023-03-14T17:01:41.556Z,5.95
2023-03-14T17:04:09.862Z,5.98
2023-03-14T17:06:37.181Z,5.83
2023-03-14T17:09:07.152Z,5.63
2023-03-14T17:11:35.478Z,5.46
2023-03-14T17:14:03.603Z,5.23
2023-03-14T17:16:31.480Z,5.09
2023-03-14T17:18:58.882Z,5.14
2023-03-14T17:21:26.029Z,4.94
2023-03-14T17:23:53.135Z,4.82
2023-03-14T17:26:20.268Z,4.93
2023-03-14T17:28:47.316Z,4.84
2023-03-14T17:31:17.343Z,4.80
2023-03-14T17:33:45.050Z,4.65
2023-03-14T17:36:14.003Z,4.58
2023-03-14T17:38:42.029Z,4.56
2023-03-14T17:41:13.971Z,4.44
2023-03-14T17:43:41.844Z,4.56
2023-03-14T17:46:15.376Z,4.50
2023-03-14T17:48:47.889Z,4.41
2023-03-14T17:51:16.562Z,4.28
2023-03-14T17:53:44.218Z,4.22
2023-03-14T17:56:12.247Z,4.24
2023-03-14T17:58:39.284Z,4.16
2023-03-14T18:01:15.719Z,4.32
2023-03-14T18:03:43.056Z,4.25
2023-03-14T18:06:11.054Z,4.16
2023-03-14T18:08:40.953Z,4.11
2023-03-14T18:11:08.415Z,4.21
2023-03-14T18:13:38.479Z,4.06
2023-03-14T18:16:07.406Z,4.19
2023-03-14T18:18:35.348Z,4.10
2023-03-14T18:21:04.196Z,4.09
2023-03-14T18:23:31.436Z,3.90
2023-03-14T18:25:59.955Z,3.82
2023-03-14T18:28:29.213Z,3.84
2023-03-14T18:31:13.049Z,3.88
2023-03-14T18:33:42.601Z,3.94
2023-03-14T18:36:10.775Z,4.06
2023-03-14T18:38:43.503Z,4.07
2023-03-14T18:41:14.182Z,4.00
2023-03-14T18:43:41.959Z,4.10
2023-03-14T18:46:10.728Z,4.02
2023-03-14T18:48:42.787Z,4.01
2023-03-14T18:51:15.597Z,3.90
2023-03-14T18:53:43.597Z,3.77
2023-03-14T18:56:14.658Z,3.67
2023-03-14T18:58:43.159Z,3.63
2023-03-14T19:01:12.558Z,3.42
2023-03-14T19:03:40.724Z,3.35
2023-03-14T19:06:09.224Z,3.37
2023-03-14T19:08:37.793Z,3.51
2023-03-14T19:11:07.786Z,3.70
2023-03-14T19:13:35.674Z,3.66
2023-03-14T19:16:04.246Z,3.60
2023-03-14T19:18:35.363Z,3.56
2023-03-14T19:21:05.932Z,3.53
2023-03-14T19:23:34.961Z,3.49
2023-03-14T19:26:05.512Z,3.47
2023-03-14T19:28:35.469Z,3.51
2023-03-14T19:31:04.011Z,3.58
2023-03-14T19:33:33.350Z,3.58
2023-03-14T19:36:02.629Z,3.79
2023-03-14T19:38:30.157Z,3.83
2023-03-14T19:40:58.801Z,3.96
2023-03-14T19:43:26.574Z,4.00
2023-03-14T19:45:55.728Z,3.98
2023-03-14T19:48:30.528Z,3.91
2023-03-14T19:51:00.623Z,3.86
2023-03-14T19:53:27.812Z,3.80
2023-03-14T19:55:55.209Z,3.63
2023-03-14T19:58:23.963Z,3.52
2023-03-14T20:00:51.767Z,3.48
2023-03-14T20:03:19.199Z,3.56
2023-03-14T20:05:46.419Z,3.56
2023-03-14T20:08:14.143Z,3.64
2023-03-14T20:10:41.408Z,3.73
2023-03-14T20:13:19.134Z,3.67
2023-03-14T20:15:48.545Z,3.83
2023-03-14T20:18:16.191Z,3.80
2023-03-14T20:20:43.703Z,3.99
2023-03-14T20:23:10.827Z,4.18
2023-03-14T20:25:38.221Z,4.18
2023-03-14T20:28:05.681Z,4.17
2023-03-14T20:30:33.906Z,4.15
2023-03-14T20:33:04.996Z,4.08
2023-03-14T20:35:33.075Z,3.99
2023-03-14T20:38:00.411Z,3.88
2023-03-14T20:40:30.385Z,3.76
2023-03-14T20:42:57.655Z,3.84
2023-03-14T20:45:25.016Z,3.72
2023-03-14T20:47:52.517Z,3.70
2023-03-14T20:50:19.880Z,3.75
2023-03-14T20:52:47.153Z,3.83
2023-03-14T20:55:14.696Z,3.90
2023-03-14T20:57:42.001Z,3.99
2023-03-14T21:00:09.860Z,4.08
2023-03-14T21:02:37.138Z,4.13
2023-03-14T21:05:05.081Z,4.11
2023-03-14T21:07:34.916Z,3.30
2023-03-14T21:10:02.473Z,2.65
2023-03-14T21:12:29.618Z,2.44
2023-03-14T21:14:57.117Z,2.23
2023-03-14T21:17:24.465Z,2.15
2023-03-14T21:19:58.514Z,2.19
2023-03-14T21:22:26.965Z,2.24
2023-03-14T21:24:54.386Z,2.36
2023-03-14T21:27:22.137Z,2.59
2023-03-14T21:29:49.260Z,2.57
2023-03-14T21:32:16.470Z,2.77
2023-03-14T21:34:43.859Z,2.69
2023-03-14T21:37:11.624Z,2.58
2023-03-14T21:39:39.456Z,2.52
2023-03-14T21:42:06.798Z,2.47
2023-03-14T21:44:37.391Z,2.42
2023-03-14T21:47:05.956Z,2.57
2023-03-14T21:49:42.353Z,2.64
2023-03-14T21:52:12.065Z,2.40
2023-03-14T21:54:40.265Z,2.17
2023-03-14T21:57:07.606Z,2.04
2023-03-14T21:59:36.190Z,1.94
2023-03-14T22:02:05.883Z,1.95
2023-03-14T22:04:37.424Z,1.92
2023-03-14T22:07:06.583Z,1.88
2023-03-14T22:09:35.151Z,1.95
2023-03-14T22:12:02.630Z,1.93
2023-03-14T22:14:29.561Z,1.93
2023-03-14T22:17:00.069Z,2.00
2023-03-14T22:19:28.132Z,2.03
2023-03-14T22:21:55.055Z,2.04
2023-03-14T22:24:22.588Z,2.13
2023-03-14T22:26:53.882Z,2.17
2023-03-14T22:29:21.987Z,2.20
2023-03-14T22:31:49.350Z,2.22
2023-03-14T22:34:17.130Z,2.28
2023-03-14T22:36:44.146Z,2.27
2023-03-14T22:39:11.369Z,2.23
2023-03-14T22:41:38.796Z,2.20
2023-03-14T22:44:06.074Z,2.07
2023-03-14T22:46:33.476Z,2.06
2023-03-14T22:49:00.817Z,2.05
2023-03-14T22:51:28.105Z,2.01
2023-03-14T22:53:55.147Z,1.93
2023-03-14T22:56:22.358Z,1.82
2023-03-14T22:58:50.179Z,1.77
2023-03-14T23:01:17.652Z,1.77
2023-03-14T23:03:44.618Z,1.73
2023-03-14T23:06:11.837Z,1.65
2023-03-14T23:08:39.137Z,1.63
2023-03-14T23:11:07.230Z,1.71
2023-03-14T23:13:35.539Z,1.73
2023-03-14T23:16:03.177Z,1.75
2023-03-14T23:18:30.338Z,1.75
2023-03-14T23:21:15.553Z,1.79
2023-03-14T23:23:46.115Z,1.83
2023-03-14T23:26:15.643Z,1.96
2023-03-14T23:28:43.759Z,1.96
2023-03-14T23:31:14.634Z,2.00
2023-03-14T23:33:42.717Z,1.99
2023-03-14T23:36:13.437Z,2.01
2023-03-14T23:38:44.446Z,1.99
2023-03-14T23:41:15.970Z,1.92
2023-03-14T23:43:47.318Z,1.80
2023-03-14T23:46:15.725Z,1.68
2023-03-14T23:48:47.336Z,1.60
2023-03-14T23:51:15.097Z,1.49
2023-03-14T23:53:42.772Z,1.42
2023-03-14T23:56:11.979Z,1.43
2023-03-14T23:58:39.587Z,1.50
